createdAt,value
2019-03-27T00:00:45.386Z,25.37
2019-03-27T00:03:13.516Z,23.77
2019-03-27T00:05:41.679Z,23.33
2019-03-27T00:08:09.833Z,28.83
2019-03-27T00:10:38.042Z,19.17
2019-03-27T00:13:06.228Z,22.73
2019-03-27T00:15:34.385Z,26.20
2019-03-27T00:18:02.508Z,27.30
2019-03-27T00:20:30.752Z,23.90
2019-03-27T00:22:58.886Z,23.93
2019-03-27T00:25:27.116Z,23.63
2019-03-27T00:27:55.237Z,26.13
2019-03-27T00:30:23.380Z,26.27
2019-03-27T00:32:51.513Z,22.27
2019-03-27T00:35:19.692Z,24.13
2019-03-27T00:37:47.883Z,22.63
2019-03-27T00:40:21.737Z,28.87
2019-03-27T00:42:49.878Z,24.83
2019-03-27T00:45:26.312Z,25.60
2019-03-27T00:47:48.026Z,29.43
2019-03-27T00:50:16.184Z,28.63
2019-03-27T00:52:44.396Z,28.83
2019-03-27T00:55:12.933Z,22.37
2019-03-27T00:57:42.620Z,26.37
2019-03-27T01:00:22.598Z,25.47
2019-03-27T01:02:50.807Z,24.40
2019-03-27T01:05:18.973Z,25.57
2019-03-27T01:07:47.109Z,20.77
2019-03-27T01:10:15.879Z,32.50
2019-03-27T01:12:44.047Z,21.00
2019-03-27T01:15:13.999Z,28.13
2019-03-27T01:17:42.206Z,20.87
2019-03-27T01:20:11.102Z,28.87
2019-03-27T01:22:39.276Z,29.70
2019-03-27T01:25:07.562Z,27.97
2019-03-27T01:27:35.966Z,29.37
2019-03-27T01:30:04.925Z,27.23
2019-03-27T01:32:33.127Z,33.53
2019-03-27T01:35:01.242Z,27.30
2019-03-27T01:37:29.430Z,25.53
2019-03-27T01:40:01.266Z,26.80
2019-03-27T01:42:29.427Z,22.87
2019-03-27T01:44:57.595Z,30.33
2019-03-27T01:47:25.759Z,26.20
2019-03-27T01:49:53.883Z,26.63
2019-03-27T01:52:22.056Z,25.63
2019-03-27T01:54:50.177Z,26.03
2019-03-27T01:57:18.344Z,30.70
2019-03-27T01:59:46.483Z,25.60
2019-03-27T02:02:14.634Z,34.03
2019-03-27T02:04:42.768Z,30.57
2019-03-27T02:07:10.913Z,26.70
2019-03-27T02:09:39.056Z,27.40
2019-03-27T02:12:07.236Z,31.63
2019-03-27T02:14:35.434Z,25.70
2019-03-27T02:17:03.644Z,25.33
2019-03-27T02:19:31.824Z,33.70
2019-03-27T02:22:00.017Z,25.97
2019-03-27T02:24:27.880Z,30.97
2019-03-27T02:26:55.981Z,28.47
2019-03-27T02:29:24.181Z,28.50
2019-03-27T02:31:52.306Z,29.47
2019-03-27T02:34:20.458Z,35.57
2019-03-27T02:36:49.106Z,36.23
2019-03-27T02:39:17.287Z,31.20
2019-03-27T02:41:45.410Z,38.17
2019-03-27T02:44:13.595Z,33.17
2019-03-27T02:46:41.715Z,40.73
2019-03-27T02:49:09.571Z,34.63
2019-03-27T02:51:37.720Z,41.00
2019-03-27T02:54:05.889Z,30.63
2019-03-27T02:56:34.053Z,36.33
2019-03-27T02:59:02.198Z,34.80
2019-03-27T03:01:30.330Z,33.20
2019-03-27T03:03:58.475Z,36.57
2019-03-27T03:06:26.650Z,37.50
2019-03-27T03:08:54.778Z,38.13
2019-03-27T03:11:22.953Z,34.47
2019-03-27T03:13:51.095Z,38.33
2019-03-27T03:16:19.264Z,36.60
2019-03-27T03:18:47.412Z,36.40
2019-03-27T03:21:15.558Z,38.27
2019-03-27T03:23:43.709Z,30.53
2019-03-27T03:26:11.846Z,32.27
2019-03-27T03:28:39.995Z,35.63
2019-03-27T03:31:08.154Z,39.47
2019-03-27T03:33:36.303Z,38.07
2019-03-27T03:36:04.454Z,38.07
2019-03-27T03:38:32.611Z,36.00
2019-03-27T03:41:00.733Z,36.67
2019-03-27T03:43:28.911Z,43.63
2019-03-27T03:45:57.043Z,44.07
2019-03-27T03:48:25.176Z,45.03
2019-03-27T03:50:56.586Z,36.47
2019-03-27T03:53:25.319Z,38.93
2019-03-27T03:55:54.602Z,40.20
2019-03-27T03:58:25.402Z,41.57
2019-03-27T04:00:54.543Z,33.27
2019-03-27T04:03:26.894Z,39.03
2019-03-27T04:06:14.256Z,38.73
2019-03-27T04:08:42.435Z,47.10
2019-03-27T04:11:10.627Z,38.97
2019-03-27T04:13:38.795Z,36.57
2019-03-27T04:16:06.958Z,37.43
2019-03-27T04:18:35.076Z,35.73
2019-03-27T04:21:03.490Z,44.23
2019-03-27T04:23:31.669Z,43.27
2019-03-27T04:26:09.818Z,37.60
2019-03-27T04:28:31.141Z,35.73
2019-03-27T04:31:00.038Z,38.80
2019-03-27T04:33:28.194Z,44.00
2019-03-27T04:35:56.337Z,38.57
2019-03-27T04:38:24.489Z,34.50
2019-03-27T04:40:52.634Z,41.83
2019-03-27T04:43:20.761Z,35.63
2019-03-27T04:45:48.962Z,38.13
2019-03-27T04:48:17.071Z,45.93
2019-03-27T04:50:45.230Z,43.33
2019-03-27T04:53:13.425Z,41.03
2019-03-27T04:55:41.623Z,39.70
2019-03-27T04:58:09.738Z,45.37
2019-03-27T05:00:37.619Z,45.73
2019-03-27T05:03:05.841Z,44.57
2019-03-27T05:05:34.036Z,45.93
2019-03-27T05:08:02.171Z,45.83
2019-03-27T05:10:30.371Z,40.67
2019-03-27T05:12:58.529Z,52.57
2019-03-27T05:15:26.687Z,48.67
2019-03-27T05:17:54.808Z,41.63
2019-03-27T05:20:22.989Z,37.80
2019-03-27T05:22:51.181Z,38.13
2019-03-27T05:25:19.330Z,38.33
2019-03-27T05:27:48.062Z,42.43
2019-03-27T05:30:25.878Z,47.17
2019-03-27T05:32:54.013Z,40.97
2019-03-27T05:35:22.206Z,41.87
2019-03-27T05:37:50.347Z,34.00
2019-03-27T05:40:18.504Z,42.27
2019-03-27T05:42:59.779Z,48.93
2019-03-27T05:45:16.619Z,47.33
2019-03-27T05:48:03.989Z,34.97
2019-03-27T05:50:32.214Z,41.20
2019-03-27T05:53:01.853Z,42.27
2019-03-27T05:55:30.041Z,35.30
2019-03-27T05:57:58.186Z,42.43
2019-03-27T06:00:26.326Z,35.33
2019-03-27T06:02:54.511Z,39.97
2019-03-27T06:05:22.663Z,41.77
2019-03-27T06:07:50.845Z,42.60
2019-03-27T06:10:19.578Z,39.23
2019-03-27T06:12:47.739Z,44.90
2019-03-27T06:18:13.109Z,39.17
2019-03-27T06:20:35.199Z,43.07
2019-03-27T06:23:03.375Z,42.17
2019-03-27T06:25:31.493Z,43.40
2019-03-27T06:27:59.712Z,42.07
2019-03-27T06:30:28.091Z,39.13
2019-03-27T06:32:56.250Z,35.73
2019-03-27T06:35:24.370Z,37.03
2019-03-27T06:37:52.565Z,42.30
2019-03-27T06:40:20.699Z,44.47
2019-03-27T06:42:48.846Z,43.60
2019-03-27T06:45:16.974Z,49.83
2019-03-27T06:47:45.146Z,44.37
2019-03-27T06:50:13.493Z,42.93
2019-03-27T06:52:41.687Z,46.17
2019-03-27T06:55:10.065Z,38.10
2019-03-27T06:57:38.237Z,40.27
2019-03-27T07:00:08.335Z,44.60
2019-03-27T07:02:36.486Z,44.43
2019-03-27T07:05:05.242Z,40.60
2019-03-27T07:07:33.421Z,39.77
2019-03-27T07:10:01.629Z,46.10
2019-03-27T07:12:29.797Z,42.63
2019-03-27T07:14:57.945Z,38.27
2019-03-27T07:17:26.107Z,41.33
2019-03-27T07:19:54.332Z,40.30
2019-03-27T07:22:22.450Z,48.23
2019-03-27T07:24:50.660Z,44.67
2019-03-27T07:27:18.879Z,44.13
2019-03-27T07:29:47.074Z,38.83
2019-03-27T07:32:15.207Z,37.57
2019-03-27T07:34:43.431Z,42.60
2019-03-27T07:37:11.568Z,38.63
2019-03-27T07:39:39.826Z,40.83
2019-03-27T07:42:08.013Z,37.73
2019-03-27T07:44:36.260Z,36.97
2019-03-27T07:47:04.399Z,36.97
2019-03-27T07:49:32.589Z,37.03
2019-03-27T07:52:00.732Z,38.23
2019-03-27T07:54:28.946Z,40.57
2019-03-27T07:56:57.130Z,38.63
2019-03-27T07:59:25.316Z,41.13
2019-03-27T08:01:53.732Z,38.07
2019-03-27T08:04:22.349Z,32.90
2019-03-27T08:06:50.766Z,34.10
2019-03-27T08:09:38.377Z,35.53
2019-03-27T08:12:06.512Z,34.33
2019-03-27T08:14:34.755Z,35.17
2019-03-27T08:17:03.047Z,36.23
2019-03-27T08:19:31.370Z,36.87
2019-03-27T08:21:59.565Z,41.13
2019-03-27T08:24:27.768Z,33.47
2019-03-27T08:26:55.957Z,36.93
2019-03-27T08:29:24.164Z,37.10
2019-03-27T08:31:52.388Z,43.03
2019-03-27T08:34:20.543Z,41.87
2019-03-27T08:36:48.723Z,41.53
2019-03-27T08:39:16.886Z,43.57
2019-03-27T08:41:45.065Z,42.97
2019-03-27T08:44:13.317Z,37.63
2019-03-27T08:46:41.535Z,31.67
2019-03-27T08:49:21.143Z,37.57
2019-03-27T08:51:39.813Z,31.90
2019-03-27T08:54:08.195Z,31.20
2019-03-27T08:56:36.414Z,33.57
2019-03-27T08:59:04.684Z,34.93
2019-03-27T09:01:32.887Z,41.17
2019-03-27T09:04:01.076Z,34.10
2019-03-27T09:06:33.822Z,30.20
2019-03-27T09:08:59.397Z,30.27
2019-03-27T09:11:27.569Z,23.53
2019-03-27T09:13:55.796Z,21.30
2019-03-27T09:16:24.001Z,19.83
2019-03-27T09:18:52.162Z,20.17
2019-03-27T09:21:20.336Z,24.50
2019-03-27T09:23:48.531Z,19.80
2019-03-27T09:26:16.741Z,18.27
2019-03-27T09:28:44.915Z,15.10
2019-03-27T09:31:13.170Z,19.47
2019-03-27T09:33:41.530Z,19.77
2019-03-27T09:36:09.862Z,14.90
2019-03-27T09:38:38.200Z,11.57
2019-03-27T09:41:06.539Z,14.03
2019-03-27T09:43:34.739Z,11.17
2019-03-27T09:46:02.973Z,17.23
2019-03-27T09:48:31.211Z,15.83
2019-03-27T09:50:59.433Z,12.97
2019-03-27T09:53:27.634Z,12.47
2019-03-27T09:55:55.805Z,13.70
2019-03-27T09:58:23.971Z,10.13
2019-03-27T10:01:01.120Z,13.03
2019-03-27T10:03:29.291Z,8.90
2019-03-27T10:05:57.446Z,13.10
2019-03-27T10:08:25.737Z,9.87
2019-03-27T10:10:53.519Z,9.87
2019-03-27T10:13:21.811Z,8.70
2019-03-27T10:15:49.958Z,11.03
2019-03-27T10:18:18.246Z,12.30
2019-03-27T10:20:46.453Z,17.30
2019-03-27T10:23:14.700Z,11.17
2019-03-27T10:25:45.242Z,11.50
2019-03-27T10:28:13.479Z,12.30
2019-03-27T10:30:41.758Z,10.87
2019-03-27T10:33:09.978Z,13.40
2019-03-27T10:35:38.157Z,8.10
2019-03-27T10:38:06.411Z,6.73
2019-03-27T10:40:34.636Z,6.77
2019-03-27T10:43:02.963Z,16.40
2019-03-27T10:45:31.172Z,16.90
2019-03-27T10:47:59.391Z,7.13
2019-03-27T10:50:27.523Z,8.27
2019-03-27T10:52:55.754Z,11.27
2019-03-27T10:55:23.943Z,13.50
2019-03-27T10:57:52.155Z,9.67
2019-03-27T11:00:20.346Z,11.60
2019-03-27T11:02:48.934Z,12.47
2019-03-27T11:05:17.080Z,12.97
2019-03-27T11:07:45.900Z,8.90
2019-03-27T11:10:14.242Z,7.77
2019-03-27T11:12:44.468Z,8.33
2019-03-27T11:15:12.812Z,9.63
2019-03-27T11:17:41.049Z,8.67
2019-03-27T11:20:09.286Z,12.80
2019-03-27T11:22:37.493Z,10.13
2019-03-27T11:25:06.270Z,8.37
2019-03-27T11:27:34.111Z,10.63
2019-03-27T11:30:02.203Z,9.47
2019-03-27T11:32:30.066Z,12.87
2019-03-27T11:34:58.236Z,9.07
2019-03-27T11:37:26.416Z,15.93
2019-03-27T11:39:54.602Z,10.37
2019-03-27T11:42:22.854Z,10.87
2019-03-27T11:44:51.041Z,6.93
2019-03-27T11:47:19.305Z,11.00
2019-03-27T11:49:47.458Z,10.03
2019-03-27T11:52:15.697Z,12.33
2019-03-27T11:54:43.959Z,11.47
2019-03-27T11:57:11.802Z,8.33
2019-03-27T11:59:52.891Z,11.63
2019-03-27T12:02:10.418Z,8.83
2019-03-27T12:04:38.858Z,10.07
2019-03-27T12:07:07.303Z,11.00
2019-03-27T12:09:35.293Z,7.60
2019-03-27T12:12:03.726Z,10.00
2019-03-27T12:14:32.188Z,7.83
2019-03-27T12:17:00.974Z,9.10
2019-03-27T12:19:29.383Z,6.90
2019-03-27T12:21:57.795Z,10.47
2019-03-27T12:24:28.485Z,8.63
2019-03-27T12:26:56.455Z,6.30
2019-03-27T12:29:24.666Z,8.87
2019-03-27T12:31:53.605Z,6.63
2019-03-27T12:34:21.904Z,9.60
2019-03-27T12:36:50.388Z,6.80
2019-03-27T12:39:18.520Z,9.50
2019-03-27T12:41:46.836Z,7.97
2019-03-27T12:44:14.961Z,7.30
2019-03-27T12:46:43.512Z,6.90
2019-03-27T12:49:11.893Z,13.00
2019-03-27T12:51:40.384Z,5.63
2019-03-27T12:54:08.866Z,6.70
2019-03-27T12:56:37.249Z,8.80
2019-03-27T12:59:05.638Z,7.00
2019-03-27T13:01:33.805Z,10.83
2019-03-27T13:04:02.052Z,8.73
2019-03-27T13:06:30.272Z,7.23
2019-03-27T13:08:58.477Z,7.45
2019-03-27T13:11:26.721Z,5.60
2019-03-27T13:13:56.512Z,7.87
2019-03-27T13:16:24.649Z,7.67
2019-03-27T13:18:52.925Z,7.90
2019-03-27T13:21:26.622Z,8.23
2019-03-27T13:23:51.215Z,10.17
2019-03-27T13:26:19.631Z,7.87
2019-03-27T13:28:49.246Z,9.50
2019-03-27T13:31:17.583Z,7.37
2019-03-27T13:33:45.584Z,12.37
2019-03-27T13:36:13.811Z,6.43
2019-03-27T13:38:41.971Z,8.73
2019-03-27T13:41:10.209Z,5.77
2019-03-27T13:43:38.362Z,6.40
2019-03-27T13:46:06.718Z,8.53
2019-03-27T13:48:34.866Z,7.37
2019-03-27T13:51:02.866Z,10.23
2019-03-27T13:53:31.058Z,9.43
2019-03-27T13:56:00.691Z,9.87
2019-03-27T13:58:28.712Z,10.30
2019-03-27T14:00:57.913Z,8.40
2019-03-27T14:03:26.176Z,8.57
2019-03-27T14:05:54.346Z,7.13
2019-03-27T14:08:22.521Z,7.40
2019-03-27T14:10:50.846Z,6.07
2019-03-27T14:13:19.035Z,7.37
2019-03-27T14:15:47.295Z,8.73
2019-03-27T14:18:15.470Z,11.03
2019-03-27T14:20:43.659Z,7.17
2019-03-27T14:23:11.518Z,7.53
2019-03-27T14:25:39.694Z,8.47
2019-03-27T14:28:07.857Z,6.20
2019-03-27T14:30:55.958Z,5.70
2019-03-27T14:33:24.208Z,8.60
2019-03-27T14:35:52.430Z,8.13
2019-03-27T14:38:20.783Z,9.13
2019-03-27T14:40:49.198Z,10.03
2019-03-27T14:43:17.040Z,10.10
2019-03-27T14:45:45.515Z,6.47
2019-03-27T14:48:13.655Z,12.80
2019-03-27T14:50:41.939Z,9.50
2019-03-27T14:53:10.211Z,7.43
2019-03-27T14:55:38.429Z,7.57
2019-03-27T14:58:06.239Z,8.37
2019-03-27T15:00:34.404Z,10.47
2019-03-27T15:03:02.625Z,7.13
2019-03-27T15:05:30.879Z,7.10
2019-03-27T15:07:59.107Z,7.87
2019-03-27T15:10:27.448Z,9.20
2019-03-27T15:12:55.980Z,8.67
2019-03-27T15:15:24.178Z,11.47
2019-03-27T15:17:52.423Z,10.67
2019-03-27T15:20:20.672Z,12.33
2019-03-27T15:22:48.872Z,7.57
2019-03-27T15:25:17.063Z,8.07
2019-03-27T15:27:45.287Z,9.87
2019-03-27T15:30:13.885Z,7.73
2019-03-27T15:32:42.058Z,8.73
2019-03-27T15:35:10.528Z,8.03
2019-03-27T15:37:38.415Z,9.17
2019-03-27T15:40:06.373Z,8.33
2019-03-27T15:42:34.641Z,8.47
2019-03-27T15:45:03.286Z,7.80
2019-03-27T15:47:31.564Z,9.57
2019-03-27T15:49:59.770Z,9.43
2019-03-27T15:52:36.432Z,11.23
2019-03-27T15:54:57.947Z,9.90
2019-03-27T15:57:25.847Z,8.30
2019-03-27T15:59:53.968Z,7.80
2019-03-27T16:02:22.167Z,10.93
2019-03-27T16:04:50.351Z,10.53
2019-03-27T16:07:18.604Z,6.97
2019-03-27T16:09:46.732Z,8.47
2019-03-27T16:12:14.880Z,6.77
2019-03-27T16:14:43.336Z,6.73
2019-03-27T16:17:13.500Z,8.00
2019-03-27T16:19:41.160Z,8.80
2019-03-27T16:22:09.410Z,7.10
2019-03-27T16:24:37.581Z,7.37
2019-03-27T16:27:05.853Z,8.23
2019-03-27T16:29:34.049Z,9.10
2019-03-27T16:32:02.847Z,9.83
2019-03-27T16:34:31.077Z,13.87
2019-03-27T16:36:59.318Z,11.93
2019-03-27T16:39:27.574Z,11.20
2019-03-27T16:41:55.795Z,6.70
2019-03-27T16:44:23.994Z,11.17
2019-03-27T16:46:54.862Z,6.50
2019-03-27T16:49:23.011Z,10.77
2019-03-27T16:51:52.075Z,8.43
2019-03-27T16:54:21.461Z,8.17
2019-03-27T16:56:49.366Z,9.30
2019-03-27T16:59:17.580Z,9.20
2019-03-27T17:01:46.890Z,6.60
2019-03-27T17:04:15.073Z,8.40
2019-03-27T17:06:43.254Z,7.20
2019-03-27T17:09:11.467Z,9.13
2019-03-27T17:11:41.933Z,8.60
2019-03-27T17:14:10.124Z,13.03
2019-03-27T17:16:38.269Z,8.43
2019-03-27T17:19:06.473Z,11.10
2019-03-27T17:21:34.387Z,14.27
2019-03-27T17:24:02.558Z,9.97
2019-03-27T17:26:30.742Z,8.93
2019-03-27T17:28:59.020Z,9.20
2019-03-27T17:31:27.237Z,8.37
2019-03-27T17:33:55.099Z,11.37
2019-03-27T17:36:23.324Z,8.63
2019-03-27T17:38:51.498Z,8.73
2019-03-27T17:41:19.647Z,9.20
2019-03-27T17:43:47.852Z,9.87
2019-03-27T17:46:16.043Z,8.90
2019-03-27T17:48:44.216Z,11.77
2019-03-27T17:51:12.374Z,10.47
2019-03-27T17:53:40.574Z,9.97
2019-03-27T17:56:08.841Z,13.23
2019-03-27T17:58:37.031Z,11.67
2019-03-27T18:01:05.316Z,10.07
2019-03-27T18:03:33.199Z,10.80
2019-03-27T18:06:01.457Z,10.97
2019-03-27T18:08:29.714Z,10.23
2019-03-27T18:10:57.542Z,10.70
2019-03-27T18:13:27.545Z,11.87
2019-03-27T18:15:55.798Z,11.10
2019-03-27T18:18:23.934Z,13.00
2019-03-27T18:20:52.094Z,11.67
2019-03-27T18:23:20.246Z,8.00
2019-03-27T18:25:48.517Z,9.03
2019-03-27T18:28:16.665Z,11.47
2019-03-27T18:30:44.905Z,10.27
2019-03-27T18:33:13.124Z,11.60
2019-03-27T18:35:41.355Z,10.80
2019-03-27T18:38:09.627Z,10.63
2019-03-27T18:40:37.888Z,13.70
2019-03-27T18:43:06.042Z,10.40
2019-03-27T18:45:34.311Z,14.13
2019-03-27T18:48:02.964Z,9.47
2019-03-27T18:50:31.506Z,11.27
2019-03-27T18:53:00.108Z,11.87
2019-03-27T18:55:27.976Z,10.77
2019-03-27T18:58:00.381Z,12.40
2019-03-27T19:00:26.264Z,12.63
2019-03-27T19:02:54.595Z,11.03
2019-03-27T19:05:22.794Z,13.50
2019-03-27T19:07:50.626Z,12.97
2019-03-27T19:10:19.355Z,12.20
2019-03-27T19:12:47.529Z,12.87
2019-03-27T19:15:15.822Z,13.17
2019-03-27T19:17:44.042Z,11.37
2019-03-27T19:20:12.280Z,14.80
2019-03-27T19:22:40.488Z,10.80
2019-03-27T19:25:08.793Z,10.03
2019-03-27T19:27:37.021Z,11.60
2019-03-27T19:30:07.056Z,12.03
2019-03-27T19:32:35.234Z,14.37
2019-03-27T19:35:03.652Z,14.57
2019-03-27T19:37:31.800Z,12.50
2019-03-27T19:40:01.268Z,13.83
2019-03-27T19:42:29.827Z,11.47
2019-03-27T19:44:58.120Z,13.67
2019-03-27T19:47:26.427Z,12.63
2019-03-27T19:49:54.594Z,15.83
2019-03-27T19:52:22.795Z,13.23
2019-03-27T19:54:50.972Z,15.53
2019-03-27T19:57:19.149Z,12.47
2019-03-27T19:59:47.359Z,13.73
2019-03-27T20:02:15.635Z,12.97
2019-03-27T20:04:43.790Z,11.87
2019-03-27T20:07:36.063Z,11.87
2019-03-27T20:10:01.130Z,12.70
2019-03-27T20:12:29.275Z,11.13
2019-03-27T20:15:10.855Z,13.87
2019-03-27T20:17:27.392Z,14.67
2019-03-27T20:19:55.545Z,13.63
2019-03-27T20:22:23.761Z,16.03
2019-03-27T20:24:51.898Z,16.10
2019-03-27T20:27:20.064Z,12.13
2019-03-27T20:29:48.184Z,13.83
2019-03-27T20:32:16.436Z,13.00
2019-03-27T20:34:44.590Z,12.30
2019-03-27T20:37:12.776Z,11.77
2019-03-27T20:39:42.599Z,15.90
2019-03-27T20:42:10.993Z,13.30
2019-03-27T20:44:39.140Z,13.77
2019-03-27T20:47:07.326Z,13.00
2019-03-27T20:49:35.468Z,15.73
2019-03-27T20:52:03.648Z,16.73
2019-03-27T20:54:31.788Z,15.30
2019-03-27T20:56:59.958Z,13.93
2019-03-27T20:59:28.188Z,15.00
2019-03-27T21:01:56.373Z,15.23
2019-03-27T21:04:24.514Z,13.47
2019-03-27T21:06:52.714Z,15.07
2019-03-27T21:09:23.995Z,15.57
2019-03-27T21:11:52.184Z,14.40
2019-03-27T21:14:21.842Z,15.13
2019-03-27T21:16:50.177Z,15.10
2019-03-27T21:19:18.361Z,13.50
2019-03-27T21:21:46.608Z,15.47
2019-03-27T21:24:14.869Z,17.80
2019-03-27T21:26:43.415Z,14.63
2019-03-27T21:29:11.594Z,13.70
2019-03-27T21:31:39.766Z,16.63
2019-03-27T21:34:07.951Z,15.13
2019-03-27T21:36:36.109Z,19.77
2019-03-27T21:39:06.746Z,15.03
2019-03-27T21:41:34.903Z,16.53
2019-03-27T21:44:03.067Z,16.90
2019-03-27T21:46:31.278Z,16.03
2019-03-27T21:49:01.067Z,17.00
2019-03-27T21:51:29.163Z,17.03
2019-03-27T21:53:57.374Z,17.40
2019-03-27T21:56:26.000Z,20.70
2019-03-27T21:58:54.152Z,17.50
2019-03-27T22:01:22.395Z,17.10
2019-03-27T22:03:50.520Z,15.77
2019-03-27T22:06:18.676Z,19.20
2019-03-27T22:08:46.849Z,15.27
2019-03-27T22:11:15.003Z,18.03
2019-03-27T22:13:43.212Z,17.77
2019-03-27T22:16:11.336Z,16.97
2019-03-27T22:18:39.500Z,16.00
2019-03-27T22:21:07.689Z,16.77
2019-03-27T22:23:35.861Z,16.30
2019-03-27T22:26:04.078Z,16.23
2019-03-27T22:28:32.234Z,15.33
2019-03-27T22:31:00.358Z,15.40
2019-03-27T22:33:28.535Z,13.63
2019-03-27T22:35:56.766Z,15.63
2019-03-27T22:38:24.983Z,15.77
2019-03-27T22:40:53.127Z,15.63
2019-03-27T22:43:21.675Z,16.10
2019-03-27T22:45:50.074Z,14.50
2019-03-27T22:48:18.807Z,15.77
2019-03-27T22:50:46.944Z,18.70
2019-03-27T22:53:15.083Z,15.60
2019-03-27T22:55:49.925Z,16.07
2019-03-27T22:58:13.242Z,14.33
2019-03-27T23:00:48.190Z,15.47
2019-03-27T23:03:18.516Z,13.93
2019-03-27T23:05:46.628Z,14.63
2019-03-27T23:08:14.774Z,20.63
2019-03-27T23:10:42.974Z,14.57
2019-03-27T23:13:11.266Z,13.20
2019-03-27T23:15:39.419Z,15.97
2019-03-27T23:18:07.580Z,17.30
2019-03-27T23:20:35.785Z,18.13
2019-03-27T23:23:03.894Z,14.63
2019-03-27T23:25:32.055Z,17.30
2019-03-27T23:28:00.175Z,15.13
2019-03-27T23:30:28.342Z,16.80
2019-03-27T23:32:56.463Z,14.93
2019-03-27T23:35:36.380Z,15.87
2019-03-27T23:38:04.738Z,18.50
2019-03-27T23:40:32.930Z,19.47
2019-03-27T23:43:01.057Z,13.90
2019-03-27T23:45:29.298Z,15.53
2019-03-27T23:47:57.512Z,17.80
2019-03-27T23:50:25.681Z,16.30
2019-03-27T23:52:53.800Z,13.10
2019-03-27T23:55:22.010Z,17.53
2019-03-27T23:57:50.220Z,15.17
